Time;durP1;ratioP1;P1;durP2;ratioP2;P2;SDS_P1;SDS_P2;PMS_P1;PMS_P2;Temp;Humidity;BMP_temperature;BMP_pressure;BME280_temperature;BME280_humidity;BME280_pressure;Samples;Min_cycle;Max_cycle;Signal;HPM_P1;HPM_P2
2024/02/26 00:00:37;;;;;;;6.53;4.90;;;;;;;3.22;100.00;100018.41;5055345;28;20039;-77
2024/02/26 00:03:02;;;;;;;10.77;5.95;;;;;;;3.21;100.00;100022.03;5054933;28;20033;-78
2024/02/26 00:05:28;;;;;;;6.80;5.00;;;;;;;3.21;100.00;100027.28;5053743;28;20079;-78
2024/02/26 00:07:53;;;;;;;8.73;5.30;;;;;;;3.21;100.00;100029.03;5055180;28;20037;-78
2024/02/26 00:10:18;;;;;;;7.45;4.88;;;;;;;3.20;100.00;100032.66;5054912;28;20502;-79
2024/02/26 00:12:44;;;;;;;9.27;5.60;;;;;;;3.17;100.00;100037.16;5054825;28;20387;-79
2024/02/26 00:15:10;;;;;;;8.00;5.43;;;;;;;3.16;100.00;100034.66;5054434;28;20120;-78
2024/02/26 00:17:35;;;;;;;7.97;5.80;;;;;;;3.16;100.00;100042.53;5054796;28;20044;-78
2024/02/26 00:20:04;;;;;;;9.20;5.32;;;;;;;3.17;100.00;100044.22;5054687;28;20414;-78
2024/02/26 00:22:30;;;;;;;7.97;5.65;;;;;;;3.18;100.00;100040.66;5054684;28;20040;-78
2024/02/26 00:24:55;;;;;;;9.13;5.55;;;;;;;3.20;100.00;100038.72;5053626;28;20037;-78
2024/02/26 00:27:21;;;;;;;7.18;5.63;;;;;;;3.21;100.00;100050.94;5054419;28;20044;-77
2024/02/26 00:29:46;;;;;;;7.72;5.75;;;;;;;3.22;100.00;100039.44;5054197;28;20033;-77
2024/02/26 00:32:11;;;;;;;7.82;5.78;;;;;;;3.25;100.00;100038.41;5054421;28;20029;-77
2024/02/26 00:34:37;;;;;;;9.70;6.20;;;;;;;3.27;100.00;100047.88;5052803;28;20033;-77
2024/02/26 00:37:02;;;;;;;8.88;5.80;;;;;;;3.30;100.00;100046.78;5054283;28;20031;-77
2024/02/26 00:39:27;;;;;;;9.05;5.60;;;;;;;3.34;100.00;100048.25;5054534;28;20079;-78
2024/02/26 00:41:53;;;;;;;10.02;6.20;;;;;;;3.35;100.00;100047.28;5054155;28;20059;-78
2024/02/26 00:44:18;;;;;;;9.15;5.65;;;;;;;3.36;100.00;100041.09;5054217;28;20048;-80
2024/02/26 00:46:44;;;;;;;16.67;5.80;;;;;;;3.37;100.00;100045.38;5054748;28;20049;-78
2024/02/26 00:49:09;;;;;;;7.20;5.63;;;;;;;3.37;100.00;100041.94;5052582;28;20481;-78
2024/02/26 00:51:34;;;;;;;6.78;5.25;;;;;;;3.37;100.00;100042.75;5054505;28;20534;-78
2024/02/26 00:54:00;;;;;;;8.45;5.05;;;;;;;3.37;100.00;100042.75;5053938;28;20086;-78
2024/02/26 00:56:25;;;;;;;6.45;4.63;;;;;;;3.36;100.00;100035.84;5054089;28;20360;-79
2024/02/26 00:58:51;;;;;;;5.68;4.72;;;;;;;3.38;100.00;100036.56;5053810;28;20075;-77
2024/02/26 01:01:17;;;;;;;8.98;4.45;;;;;;;3.38;100.00;100040.97;5052978;28;20051;-78
2024/02/26 01:03:42;;;;;;;7.05;4.55;;;;;;;3.37;100.00;100048.00;5054166;28;20102;-78
2024/02/26 01:06:08;;;;;;;8.38;5.25;;;;;;;3.37;100.00;100040.13;5052763;28;20471;-79
2024/02/26 01:08:35;;;;;;;6.13;4.88;;;;;;;3.39;100.00;100040.88;5052652;28;20037;-79
2024/02/26 01:11:00;;;;;;;10.38;4.65;;;;;;;3.40;100.00;100045.16;5053809;28;20052;-77
2024/02/26 01:13:26;;;;;;;5.15;4.15;;;;;;;3.44;100.00;100046.63;5052335;28;20428;-78
2024/02/26 01:15:51;;;;;;;5.68;4.53;;;;;;;3.45;100.00;100053.56;5053701;28;20029;-77
2024/02/26 01:18:17;;;;;;;7.80;4.50;;;;;;;3.47;100.00;100045.56;5052375;28;20147;-78
2024/02/26 01:20:42;;;;;;;6.30;5.00;;;;;;;3.46;100.00;100051.75;5053458;28;20025;-78
2024/02/26 01:23:07;;;;;;;5.63;4.43;;;;;;;3.45;100.00;100053.56;5053206;28;20484;-77
2024/02/26 01:25:33;;;;;;;6.60;4.80;;;;;;;3.47;100.00;100056.09;5035484;28;20041;-77
2024/02/26 01:27:58;;;;;;;6.82;4.78;;;;;;;3.48;100.00;100052.50;5053523;28;20041;-77
2024/02/26 01:30:23;;;;;;;5.15;4.65;;;;;;;3.52;100.00;100051.31;5053356;28;20127;-78
2024/02/26 01:32:49;;;;;;;9.43;5.25;;;;;;;3.53;100.00;100047.75;5051534;28;20489;-77
2024/02/26 01:35:14;;;;;;;5.40;4.90;;;;;;;3.56;100.00;100049.31;5052818;28;20033;-78
2024/02/26 01:37:40;;;;;;;6.57;5.05;;;;;;;3.56;100.00;100042.25;5053512;28;20375;-79
2024/02/26 01:40:06;;;;;;;7.70;5.32;;;;;;;3.58;100.00;100040.34;5053333;28;20481;-77
2024/02/26 01:42:32;;;;;;;8.18;5.25;;;;;;;3.62;100.00;100040.97;5052898;28;20309;-77
2024/02/26 01:44:59;;;;;;;6.07;5.47;;;;;;;3.59;100.00;100034.13;5052885;28;20380;-77
2024/02/26 01:47:26;;;;;;;7.75;5.95;;;;;;;3.60;100.00;100032.31;5053276;28;20079;-78
2024/02/26 01:49:52;;;;;;;9.65;6.03;;;;;;;3.60;100.00;100034.97;5053505;28;20045;-77
2024/02/26 01:52:17;;;;;;;10.98;6.10;;;;;;;3.61;100.00;100036.63;5051373;28;20139;-77
2024/02/26 01:54:45;;;;;;;7.32;5.97;;;;;;;3.60;100.00;100033.19;5052637;28;20029;-78
2024/02/26 01:57:11;;;;;;;7.88;6.15;;;;;;;3.65;100.00;100041.56;5034793;28;20041;-78
2024/02/26 01:59:38;;;;;;;6.95;6.18;;;;;;;3.66;100.00;100047.69;5051986;28;20045;-77
2024/02/26 02:02:07;;;;;;;9.55;6.40;;;;;;;3.69;100.00;100048.28;5051475;28;20033;-83
2024/02/26 02:04:33;;;;;;;11.43;6.72;;;;;;;3.71;100.00;100056.06;5050091;28;20040;-83
2024/02/26 02:07:00;;;;;;;11.25;6.75;;;;;;;3.74;100.00;100062.91;5051225;28;20124;-83
2024/02/26 02:09:27;;;;;;;8.93;6.80;;;;;;;3.74;100.00;100061.09;5051509;28;20060;-84
2024/02/26 02:11:53;;;;;;;9.35;7.28;;;;;;;3.75;100.00;100069.81;5051554;28;20102;-84
2024/02/26 02:14:18;;;;;;;10.40;6.20;;;;;;;3.76;100.00;100076.75;5050075;28;20335;-84
2024/02/26 02:16:43;;;;;;;8.55;7.10;;;;;;;3.78;100.00;100075.72;5051020;28;20104;-84
2024/02/26 02:19:09;;;;;;;9.15;7.32;;;;;;;3.81;100.00;100085.19;5051033;28;20040;-84
2024/02/26 02:21:34;;;;;;;8.50;7.20;;;;;;;3.79;100.00;100081.78;5049834;28;20037;-84
2024/02/26 02:23:59;;;;;;;9.35;7.10;;;;;;;3.80;100.00;100078.22;5051261;28;20039;-84
2024/02/26 02:26:25;;;;;;;8.93;6.82;;;;;;;3.79;100.00;100077.41;5050835;28;20142;-84
2024/02/26 02:28:50;;;;;;;11.05;7.55;;;;;;;3.82;100.00;100073.66;5033160;28;20131;-84
2024/02/26 02:31:16;;;;;;;8.77;6.65;;;;;;;3.82;100.00;100076.31;5049915;28;20029;-84
2024/02/26 02:33:42;;;;;;;10.40;7.03;;;;;;;3.83;100.00;100081.44;5051077;28;20055;-83
2024/02/26 02:36:09;;;;;;;8.70;7.22;;;;;;;3.85;100.00;100087.47;5051073;28;20037;-85
2024/02/26 02:38:48;;;;;;;12.82;7.40;;;;;;;3.85;100.00;100090.09;5051061;28;20029;-84
2024/02/26 02:41:14;;;;;;;8.98;6.60;;;;;;;3.86;100.00;100089.13;5051011;28;20037;-84
2024/02/26 02:43:39;;;;;;;7.47;6.28;;;;;;;3.84;100.00;100091.03;5049405;28;20045;-85
2024/02/26 02:46:05;;;;;;;8.57;6.07;;;;;;;3.86;100.00;100088.28;5049579;28;20083;-85
2024/02/26 02:48:30;;;;;;;7.38;5.93;;;;;;;3.85;100.00;100098.00;5049517;28;20458;-83
2024/02/26 02:50:55;;;;;;;6.35;5.70;;;;;;;3.86;100.00;100090.91;5051090;28;20043;-84
2024/02/26 02:53:20;;;;;;;9.00;5.80;;;;;;;3.86;100.00;100089.13;5050274;28;20044;-84
2024/02/26 02:55:46;;;;;;;8.35;5.80;;;;;;;3.87;100.00;100096.06;5050250;28;20140;-84
2024/02/26 02:58:11;;;;;;;7.82;5.63;;;;;;;3.86;100.00;100097.00;5051007;28;20029;-84
2024/02/26 03:00:37;;;;;;;8.23;5.70;;;;;;;3.86;100.00;100104.91;5050549;28;20524;-83
2024/02/26 03:03:02;;;;;;;7.30;5.00;;;;;;;3.88;100.00;100107.44;5049085;28;20037;-84
2024/02/26 03:05:27;;;;;;;6.75;5.65;;;;;;;3.87;100.00;100108.41;5050616;28;20038;-84
2024/02/26 03:07:53;;;;;;;7.53;5.63;;;;;;;3.87;100.00;100105.75;5050225;28;20094;-83
2024/02/26 03:10:18;;;;;;;7.20;4.82;;;;;;;3.89;100.00;100114.38;5049672;28;20064;-84
2024/02/26 03:12:43;;;;;;;8.30;5.28;;;;;;;3.89;100.00;100109.94;5053548;28;20159;-84
2024/02/26 03:15:11;;;;;;;6.47;5.10;;;;;;;3.88;100.00;100110.91;5054430;28;20044;-84
2024/02/26 03:17:36;;;;;;;5.20;4.63;;;;;;;3.91;100.00;100124.78;5054842;28;20032;-84
2024/02/26 03:20:04;;;;;;;8.55;5.35;;;;;;;3.91;100.00;100120.34;5054217;28;20084;-84
2024/02/26 03:22:29;;;;;;;6.72;5.05;;;;;;;3.92;100.00;100126.47;5054324;28;20040;-85
2024/02/26 03:24:54;;;;;;;7.20;5.20;;;;;;;3.93;100.00;100129.00;5054377;28;20430;-85
2024/02/26 03:27:20;;;;;;;7.22;5.30;;;;;;;3.94;100.00;100129.81;5054656;28;20025;-85
2024/02/26 03:29:45;;;;;;;7.35;5.63;;;;;;;3.96;100.00;100128.75;5055132;28;20047;-84
2024/02/26 03:32:10;;;;;;;8.30;5.90;;;;;;;3.95;100.00;100148.13;5054617;28;20111;-85
2024/02/26 03:34:36;;;;;;;10.30;5.95;;;;;;;3.94;100.00;100138.59;5054666;28;20043;-83
2024/02/26 03:37:02;;;;;;;9.02;6.25;;;;;;;3.94;100.00;100151.75;5054204;28;20029;-82
2024/02/26 03:39:27;;;;;;;8.52;6.20;;;;;;;3.93;100.00;100143.97;5055197;28;20032;-82
2024/02/26 03:41:52;;;;;;;8.55;6.47;;;;;;;3.91;100.00;100151.13;5054926;28;20025;-83
2024/02/26 03:44:18;;;;;;;8.02;6.60;;;;;;;3.86;100.00;100148.81;5054136;28;20044;-83
2024/02/26 03:46:43;;;;;;;8.95;6.50;;;;;;;3.83;100.00;100157.78;5053627;28;20509;-82
2024/02/26 03:49:09;;;;;;;9.65;6.55;;;;;;;3.81;100.00;100154.44;5054586;28;20037;-84
2024/02/26 03:51:34;;;;;;;12.18;6.78;;;;;;;3.79;100.00;100153.72;5053895;28;20120;-84
2024/02/26 03:54:00;;;;;;;9.50;6.97;;;;;;;3.79;100.00;100163.38;5052825;28;20154;-85
2024/02/26 03:56:27;;;;;;;9.48;7.00;;;;;;;3.80;100.00;100157.16;5053955;28;20136;-84
2024/02/26 03:58:52;;;;;;;10.30;7.40;;;;;;;3.80;100.00;100172.97;5054261;28;20041;-84
2024/02/26 04:01:18;;;;;;;10.88;7.22;;;;;;;3.80;100.00;100168.53;5053778;28;20064;-83
2024/02/26 04:03:43;;;;;;;14.38;8.00;;;;;;;3.79;100.00;100172.13;5053942;28;20375;-80
2024/02/26 04:06:10;;;;;;;12.45;7.28;;;;;;;3.77;100.00;100174.00;5053670;28;20136;-82
2024/02/26 04:08:36;;;;;;;10.93;7.78;;;;;;;3.79;100.00;100179.16;5053788;28;20033;-83
2024/02/26 04:11:02;;;;;;;11.30;8.00;;;;;;;3.81;100.00;100182.53;5054028;28;20037;-83
2024/02/26 04:13:27;;;;;;;12.60;7.65;;;;;;;3.81;100.00;100180.75;5053717;28;20120;-83
2024/02/26 04:15:53;;;;;;;13.60;8.38;;;;;;;3.83;100.00;100186.72;5052038;28;20115;-82
2024/02/26 04:18:18;;;;;;;12.93;8.60;;;;;;;3.83;100.00;100186.72;5053805;28;20045;-82
2024/02/26 04:20:43;;;;;;;12.70;8.30;;;;;;;3.82;100.00;100192.97;5053605;28;20079;-83
2024/02/26 04:23:09;;;;;;;13.10;8.60;;;;;;;3.82;100.00;100197.38;5052134;28;20110;-83
2024/02/26 04:25:34;;;;;;;13.15;8.65;;;;;;;3.79;100.00;100203.72;5052164;28;20110;-84
2024/02/26 04:27:59;;;;;;;10.90;8.25;;;;;;;3.78;100.00;100202.03;5053361;28;20470;-83
2024/02/26 04:30:25;;;;;;;11.73;8.07;;;;;;;3.77;100.00;100207.41;5053181;28;20390;-83
2024/02/26 04:32:50;;;;;;;12.52;7.97;;;;;;;3.74;100.00;100197.91;5053472;28;20115;-83
2024/02/26 04:35:17;;;;;;;11.70;8.05;;;;;;;3.73;100.00;100190.97;5053270;28;20056;-83
2024/02/26 04:37:42;;;;;;;11.32;7.97;;;;;;;3.73;100.00;100201.50;5053212;28;20103;-84
2024/02/26 04:40:08;;;;;;;13.15;8.63;;;;;;;3.73;100.00;100208.56;5052984;28;20060;-85
2024/02/26 04:42:33;;;;;;;13.05;8.25;;;;;;;3.71;100.00;100198.16;5052907;28;20115;-84
2024/02/26 04:44:58;;;;;;;12.98;8.48;;;;;;;3.71;100.00;100206.03;5051288;28;20033;-85
2024/02/26 04:47:24;;;;;;;16.48;8.30;;;;;;;3.71;100.00;100206.88;5053000;28;20120;-85
2024/02/26 04:49:50;;;;;;;12.70;9.05;;;;;;;3.70;100.00;100205.22;5053044;28;20451;-81
2024/02/26 04:52:15;;;;;;;13.68;8.10;;;;;;;3.70;100.00;100204.34;5053225;28;20025;-84
2024/02/26 04:54:41;;;;;;;14.35;8.63;;;;;;;3.68;100.00;100209.72;5053039;28;20120;-85
2024/02/26 04:57:06;;;;;;;13.75;8.90;;;;;;;3.67;100.00;100213.31;5052179;28;20074;-85
2024/02/26 04:59:31;;;;;;;12.40;7.95;;;;;;;3.68;100.00;100214.97;5053469;28;20029;-85
2024/02/26 05:01:57;;;;;;;13.07;8.88;;;;;;;3.68;100.00;100214.16;5052731;28;20029;-84
2024/02/26 05:04:22;;;;;;;14.38;8.95;;;;;;;3.68;100.00;100224.69;5053345;28;20128;-85
2024/02/26 05:06:47;;;;;;;13.55;8.65;;;;;;;3.67;100.00;100221.22;5051874;28;20076;-85
2024/02/26 05:09:13;;;;;;;14.57;8.50;;;;;;;3.68;100.00;100224.69;5053142;28;20091;-85
2024/02/26 05:11:38;;;;;;;12.77;7.93;;;;;;;3.68;100.00;100236.03;5052618;28;20060;-85
2024/02/26 05:14:04;;;;;;;14.88;8.68;;;;;;;3.69;100.00;100229.84;5052474;28;20049;-85
2024/02/26 05:16:30;;;;;;;12.77;8.48;;;;;;;3.69;100.00;100232.47;5052497;28;20033;-84
2024/02/26 05:18:56;;;;;;;12.27;8.52;;;;;;;3.71;100.00;100230.56;5052811;28;20056;-83
2024/02/26 05:21:21;;;;;;;14.70;8.73;;;;;;;3.72;100.00;100228.78;5052249;28;20462;-84
2024/02/26 05:23:47;;;;;;;13.30;8.55;;;;;;;3.75;100.00;100240.84;5052514;28;20021;-83
2024/02/26 05:26:19;;;;;;;13.57;9.05;;;;;;;3.74;100.00;100237.41;5052358;28;20061;-84
2024/02/26 05:28:45;;;;;;;15.20;9.38;;;;;;;3.74;100.00;100234.75;5051511;28;20033;-84
2024/02/26 05:31:13;;;;;;;13.27;8.75;;;;;;;3.74;100.00;100254.97;5052281;28;20080;-82
2024/02/26 05:33:38;;;;;;;14.43;8.85;;;;;;;3.71;100.00;100248.97;5052533;28;20037;-84
2024/02/26 05:36:05;;;;;;;13.88;8.25;;;;;;;3.71;100.00;100250.78;5033570;28;20050;-84
2024/02/26 05:38:31;;;;;;;14.20;8.38;;;;;;;3.70;100.00;100246.44;5050855;28;20051;-83
2024/02/26 05:40:58;;;;;;;12.70;8.48;;;;;;;3.68;100.00;100254.44;5051924;28;20064;-83
2024/02/26 05:43:24;;;;;;;13.55;8.98;;;;;;;3.66;100.00;100261.63;5051953;28;20060;-84
2024/02/26 05:45:49;;;;;;;13.90;8.77;;;;;;;3.66;100.00;100263.44;5051840;28;20091;-84
2024/02/26 05:48:14;;;;;;;15.70;8.90;;;;;;;3.64;100.00;100263.53;5051949;28;20088;-84
2024/02/26 05:50:40;;;;;;;18.10;10.18;;;;;;;3.65;100.00;100272.25;5050800;28;20443;-82
2024/02/26 05:53:05;;;;;;;16.05;9.90;;;;;;;3.64;100.00;100273.19;5051919;28;20101;-83
2024/02/26 05:55:30;;;;;;;16.95;10.35;;;;;;;3.63;100.00;100271.53;5051137;28;20110;-84
2024/02/26 05:57:56;;;;;;;15.82;10.07;;;;;;;3.62;100.00;100273.31;5051271;28;20037;-83
2024/02/26 06:00:21;;;;;;;17.40;10.25;;;;;;;3.60;100.00;100279.63;5051372;28;20036;-84
2024/02/26 06:02:46;;;;;;;19.60;11.45;;;;;;;3.58;100.00;100292.88;5051349;28;20037;-84
2024/02/26 06:05:12;;;;;;;18.08;11.23;;;;;;;3.57;100.00;100293.00;5049717;28;20037;-83
2024/02/26 06:07:37;;;;;;;17.60;10.70;;;;;;;3.57;100.00;100304.38;5051293;28;20029;-82
2024/02/26 06:10:04;;;;;;;21.08;11.23;;;;;;;3.55;100.00;100305.41;5051450;28;20128;-82
2024/02/26 06:12:30;;;;;;;18.27;11.48;;;;;;;3.56;100.00;100305.31;5051216;28;20033;-82
2024/02/26 06:14:56;;;;;;;20.55;11.55;;;;;;;3.55;100.00;100311.50;5050211;28;20399;-82
2024/02/26 06:17:21;;;;;;;19.67;12.27;;;;;;;3.56;100.00;100310.56;5051008;28;20061;-83
2024/02/26 06:19:47;;;;;;;22.23;13.70;;;;;;;3.55;100.00;100316.78;5051044;28;20037;-83
2024/02/26 06:22:12;;;;;;;23.63;13.55;;;;;;;3.52;100.00;100317.00;5050669;28;20402;-83
2024/02/26 06:24:38;;;;;;;22.88;12.40;;;;;;;3.49;100.00;100323.31;5049271;28;20355;-83
2024/02/26 06:27:03;;;;;;;30.70;14.35;;;;;;;3.49;100.00;100319.84;5050882;28;20104;-82
2024/02/26 06:29:29;;;;;;;26.08;14.52;;;;;;;3.48;100.00;100326.91;5050663;28;20041;-82
2024/02/26 06:31:54;;;;;;;27.23;15.02;;;;;;;3.48;100.00;100326.06;5050587;28;20475;-83
2024/02/26 06:34:19;;;;;;;24.88;13.93;;;;;;;3.47;100.00;100333.09;5050342;28;20060;-83
2024/02/26 06:36:45;;;;;;;25.13;14.80;;;;;;;3.46;100.00;100341.94;5050828;28;20029;-83
2024/02/26 06:39:12;;;;;;;24.83;14.38;;;;;;;3.45;100.00;100339.41;5050590;28;20041;-83
2024/02/26 06:41:39;;;;;;;26.60;15.07;;;;;;;3.45;100.00;100340.25;5032954;28;20029;-82
2024/02/26 06:44:04;;;;;;;22.65;14.38;;;;;;;3.45;100.00;100349.91;5050550;28;20106;-82
2024/02/26 06:46:30;;;;;;;27.42;14.82;;;;;;;3.44;100.00;100349.09;5049817;28;20209;-84
2024/02/26 06:48:56;;;;;;;24.05;14.45;;;;;;;3.44;100.00;100356.97;5050413;28;20059;-84
2024/02/26 06:51:21;;;;;;;23.52;14.55;;;;;;;3.44;100.00;100364.88;5050445;28;20144;-84
2024/02/26 06:53:47;;;;;;;23.02;14.15;;;;;;;3.46;100.00;100373.53;5050362;28;20104;-83
2024/02/26 06:56:13;;;;;;;23.58;14.43;;;;;;;3.46;100.00;100377.91;5050633;28;20213;-83
2024/02/26 06:58:38;;;;;;;22.00;13.60;;;;;;;3.48;100.00;100386.56;5050431;28;20033;-82
2024/02/26 07:01:03;;;;;;;24.75;14.38;;;;;;;3.48;100.00;100382.13;5050029;28;20029;-81
2024/02/26 07:03:30;;;;;;;22.73;13.73;;;;;;;3.48;100.00;100379.50;5050485;28;20043;-83
2024/02/26 07:05:55;;;;;;;22.83;13.60;;;;;;;3.49;100.00;100389.09;5048765;28;20383;-82
2024/02/26 07:08:21;;;;;;;20.23;13.10;;;;;;;3.50;100.00;100389.91;5050917;28;20040;-83
2024/02/26 07:10:46;;;;;;;22.50;13.10;;;;;;;3.51;100.00;100392.44;5050531;28;20029;-82
2024/02/26 07:13:11;;;;;;;18.73;12.60;;;;;;;3.52;100.00;100398.53;5050500;28;20458;-82
2024/02/26 07:15:37;;;;;;;20.08;13.55;;;;;;;3.55;100.00;100400.13;5050505;28;20036;-83
2024/02/26 07:18:03;;;;;;;19.80;12.82;;;;;;;3.57;100.00;100403.47;5050352;28;20029;-82
2024/02/26 07:20:31;;;;;;;23.42;13.02;;;;;;;3.58;100.00;100407.81;5050504;28;20033;-83
2024/02/26 07:22:57;;;;;;;19.23;12.40;;;;;;;3.59;100.00;100414.75;5051098;28;20036;-83
2024/02/26 07:25:24;;;;;;;20.92;13.20;;;;;;;3.59;100.00;100423.50;5050188;28;20029;-83
2024/02/26 07:27:49;;;;;;;21.20;12.25;;;;;;;3.60;100.00;100429.59;5050831;28;20119;-83
2024/02/26 07:30:16;;;;;;;19.13;12.00;;;;;;;3.61;100.00;100437.38;5050124;28;20112;-82
2024/02/26 07:32:42;;;;;;;19.17;12.75;;;;;;;3.62;100.00;100436.44;5050621;28;20075;-85
2024/02/26 07:35:07;;;;;;;19.23;12.13;;;;;;;3.63;100.00;100438.13;5050710;28;20389;-82
2024/02/26 07:37:33;;;;;;;18.05;11.48;;;;;;;3.64;100.00;100436.31;5050440;28;20055;-82
2024/02/26 07:39:58;;;;;;;17.58;11.43;;;;;;;3.66;100.00;100443.19;5050520;28;20119;-83
2024/02/26 07:42:23;;;;;;;19.40;11.13;;;;;;;3.67;100.00;100444.00;5050463;28;20036;-80
2024/02/26 07:44:49;;;;;;;17.02;11.20;;;;;;;3.68;100.00;100446.53;5050516;28;20420;-81
2024/02/26 07:47:14;;;;;;;17.60;10.70;;;;;;;3.69;100.00;100445.59;5050571;28;20436;-81
2024/02/26 07:49:41;;;;;;;16.85;10.60;;;;;;;3.71;100.00;100462.13;5048556;28;20033;-81
2024/02/26 07:52:06;;;;;;;14.98;9.95;;;;;;;3.71;100.00;100466.53;5050241;28;20036;-81
2024/02/26 07:54:31;;;;;;;12.70;8.90;;;;;;;3.70;100.00;100470.97;5050429;28;20033;-81
2024/02/26 07:56:57;;;;;;;12.40;8.20;;;;;;;3.73;100.00;100466.44;5048782;28;20033;-81
2024/02/26 07:59:22;;;;;;;11.98;8.25;;;;;;;3.73;100.00;100471.69;5052511;28;20083;-81
2024/02/26 08:01:51;;;;;;;11.60;8.30;;;;;;;3.76;100.00;100469.69;5035894;28;20029;-81
2024/02/26 08:04:17;;;;;;;12.00;7.68;;;;;;;3.77;100.00;100478.44;5053890;28;20427;-78
2024/02/26 08:06:42;;;;;;;10.82;7.55;;;;;;;3.78;100.00;100485.41;5053961;28;20048;-81
2024/02/26 08:09:08;;;;;;;12.27;7.07;;;;;;;3.81;100.00;100480.78;5053501;28;20116;-81
2024/02/26 08:11:34;;;;;;;11.75;7.30;;;;;;;3.80;100.00;100476.44;5053565;28;20530;-81
2024/02/26 08:13:59;;;;;;;13.27;7.28;;;;;;;3.80;100.00;100489.59;5052584;28;20033;-84
2024/02/26 08:16:24;;;;;;;9.20;6.43;;;;;;;3.80;100.00;100491.41;5054800;28;20037;-83
2024/02/26 08:18:50;;;;;;;7.68;6.18;;;;;;;3.83;100.00;100488.56;5053648;28;20167;-81
2024/02/26 08:21:15;;;;;;;11.23;7.35;;;;;;;3.84;100.00;100493.72;5052861;28;20340;-80
2024/02/26 08:23:43;;;;;;;10.40;6.97;;;;;;;3.84;100.00;100493.72;5052994;28;20029;-84
2024/02/26 08:26:11;;;;;;;9.93;6.70;;;;;;;3.85;100.00;100498.03;5052922;28;20103;-83
2024/02/26 08:28:37;;;;;;;6.10;5.43;;;;;;;3.88;100.00;100496.97;5052585;28;20082;-79
2024/02/26 08:31:02;;;;;;;10.00;5.88;;;;;;;3.90;100.00;100505.63;5053105;28;20112;-79
2024/02/26 08:33:28;;;;;;;8.73;5.45;;;;;;;3.91;100.00;100504.66;5052796;28;20060;-83
2024/02/26 08:35:54;;;;;;;11.27;5.53;;;;;;;3.94;100.00;100509.75;5050808;28;20053;-82
2024/02/26 08:38:19;;;;;;;10.00;5.90;;;;;;;3.94;100.00;100508.88;5052649;28;20029;-83
2024/02/26 08:40:44;;;;;;;8.27;5.75;;;;;;;3.95;100.00;100507.94;5052539;28;20099;-81
2024/02/26 08:43:10;;;;;;;9.38;5.40;;;;;;;3.95;100.00;100521.94;5052586;28;20081;-80
2024/02/26 08:45:35;;;;;;;8.25;5.35;;;;;;;3.96;100.00;100517.53;5052183;28;20173;-82
2024/02/26 08:48:00;;;;;;;9.10;5.25;;;;;;;3.97;100.00;100514.78;5052485;28;20044;-84
2024/02/26 08:50:26;;;;;;;10.05;6.25;;;;;;;3.99;100.00;100522.59;5051291;28;20379;-79
2024/02/26 08:52:53;;;;;;;10.40;5.32;;;;;;;4.00;100.00;100527.75;5050904;28;20127;-82
2024/02/26 08:55:18;;;;;;;7.20;5.57;;;;;;;4.03;100.00;100538.06;5052287;28;20033;-80
2024/02/26 08:57:44;;;;;;;7.25;5.05;;;;;;;4.08;100.00;100532.50;5051817;28;20051;-83
2024/02/26 09:00:09;;;;;;;8.07;5.18;;;;;;;4.13;100.00;100542.69;5051920;28;20100;-80
2024/02/26 09:02:35;;;;;;;7.65;4.95;;;;;;;4.17;100.00;100536.28;5052218;28;20459;-83
2024/02/26 09:05:00;;;;;;;7.05;4.35;;;;;;;4.24;100.00;100543.66;5050175;28;20061;-81
2024/02/26 09:07:26;;;;;;;9.95;5.05;;;;;;;4.28;100.00;100546.91;5051899;28;20033;-79
2024/02/26 09:09:51;;;;;;;6.80;4.88;;;;;;;4.33;100.00;100558.00;5051221;28;20092;-83
2024/02/26 09:12:16;;;;;;;8.32;5.07;;;;;;;4.36;100.00;100556.91;5051572;28;20127;-82
2024/02/26 09:14:42;;;;;;;8.10;5.35;;;;;;;4.36;100.00;100560.41;5051615;28;20072;-81
2024/02/26 09:17:07;;;;;;;6.50;4.80;;;;;;;4.43;100.00;100558.19;5051684;28;20112;-81
2024/02/26 09:19:33;;;;;;;7.75;4.97;;;;;;;4.49;100.00;100567.47;5050524;28;20048;-81
2024/02/26 09:21:58;;;;;;;7.13;4.93;;;;;;;4.52;100.00;100561.97;5052303;28;20466;-80
2024/02/26 09:24:24;;;;;;;6.57;4.78;;;;;;;4.53;100.00;100571.56;5052142;28;20061;-81
2024/02/26 09:26:50;;;;;;;8.23;4.88;;;;;;;4.56;100.00;100580.09;5052442;28;20072;-83
2024/02/26 09:29:15;;;;;;;6.65;4.97;;;;;;;4.61;100.00;100576.31;5052132;28;20471;-84
2024/02/26 09:31:41;;;;;;;5.60;4.45;;;;;;;4.65;100.00;100583.88;5051960;28;20184;-80
2024/02/26 09:34:07;;;;;;;5.60;4.80;;;;;;;4.71;100.00;100583.44;5052133;28;20049;-81
2024/02/26 09:36:33;;;;;;;6.30;4.28;;;;;;;4.78;100.00;100589.16;5051716;28;20037;-80
2024/02/26 09:38:58;;;;;;;7.55;4.43;;;;;;;4.84;100.00;100590.53;5050829;28;20045;-82
2024/02/26 09:41:28;;;;;;;7.43;4.68;;;;;;;4.86;100.00;100597.34;5051965;28;20028;-83
2024/02/26 09:43:56;;;;;;;9.45;4.57;;;;;;;4.93;100.00;100603.06;5052048;28;20033;-79
2024/02/26 09:46:22;;;;;;;5.20;4.57;;;;;;;4.89;100.00;100596.31;5050293;28;20479;-83
2024/02/26 09:48:47;;;;;;;11.27;4.93;;;;;;;4.93;100.00;100608.31;5051587;28;20150;-80
2024/02/26 09:51:17;;;;;;;7.18;4.22;;;;;;;4.95;100.00;100620.44;5051653;28;20064;-78
2024/02/26 09:53:45;;;;;;;5.85;4.85;;;;;;;4.98;100.00;100618.53;5050220;28;20036;-82
2024/02/26 09:56:12;;;;;;;8.93;4.50;;;;;;;4.97;100.00;100628.25;5051511;28;20052;-82
2024/02/26 09:58:39;;;;;;;6.10;4.32;;;;;;;4.94;100.00;100620.53;5051698;28;20057;-79
2024/02/26 10:01:10;;;;;;;6.05;4.60;;;;;;;4.99;100.00;100630.78;5049902;28;20076;-78
2024/02/26 10:03:40;;;;;;;5.45;4.47;;;;;;;5.04;100.00;100636.56;5052063;28;20029;-80
2024/02/26 10:06:07;;;;;;;7.45;4.22;;;;;;;5.07;100.00;100634.53;5051391;28;20391;-80
2024/02/26 10:08:33;;;;;;;6.78;4.13;;;;;;;5.18;100.00;100643.50;5051667;28;20370;-79
2024/02/26 10:10:58;;;;;;;5.28;4.10;;;;;;;5.27;100.00;100651.59;5051648;28;20083;-79
2024/02/26 10:13:24;;;;;;;6.45;4.32;;;;;;;5.39;100.00;100655.16;5051529;28;20475;-78
2024/02/26 10:15:49;;;;;;;6.43;4.05;;;;;;;5.49;100.00;100655.31;5050216;28;20121;-79
2024/02/26 10:18:15;;;;;;;6.20;4.05;;;;;;;5.57;100.00;100660.91;5050253;28;20029;-79
2024/02/26 10:20:40;;;;;;;5.30;4.00;;;;;;;5.70;100.00;100667.94;5050520;28;20043;-79
2024/02/26 10:23:05;;;;;;;7.35;4.18;;;;;;;5.75;100.00;100671.09;5050844;28;20091;-78
2024/02/26 10:25:31;;;;;;;4.75;3.95;;;;;;;5.79;100.00;100672.53;5050968;28;20035;-78
2024/02/26 10:28:04;;;;;;;6.38;4.55;;;;;;;5.80;100.00;100671.59;5051004;28;20068;-78
2024/02/26 10:30:30;;;;;;;4.35;3.90;;;;;;;5.89;100.00;100678.84;5051104;28;20098;-80
2024/02/26 10:32:56;;;;;;;6.28;3.80;;;;;;;6.02;100.00;100683.22;5051067;28;20171;-82
2024/02/26 10:35:22;;;;;;;5.53;4.10;;;;;;;6.12;100.00;100679.81;5050725;28;20164;-79
2024/02/26 10:37:48;;;;;;;6.75;4.30;;;;;;;6.16;100.00;100689.19;5051073;28;20105;-80
2024/02/26 10:40:14;;;;;;;4.85;3.80;;;;;;;6.22;100.00;100689.69;5050771;28;20029;-78
2024/02/26 10:42:41;;;;;;;5.82;3.85;;;;;;;6.26;100.00;100684.06;5050595;28;20048;-81
2024/02/26 10:45:08;;;;;;;4.43;3.70;;;;;;;6.24;100.00;100693.91;5050577;28;20485;-78
2024/02/26 10:47:37;;;;;;;4.45;3.80;;;;;;;6.21;100.00;100699.44;5050739;28;20123;-78
2024/02/26 10:50:04;;;;;;;6.40;3.92;;;;;;;6.21;100.00;100717.06;5051084;28;20111;-78
2024/02/26 10:52:33;;;;;;;5.25;3.90;;;;;;;6.09;100.00;100709.09;5050968;28;20140;-80
2024/02/26 10:55:03;;;;;;;8.98;3.63;;;;;;;6.03;100.00;100719.25;5050412;28;20029;-78
2024/02/26 10:57:33;;;;;;;11.77;4.35;;;;;;;6.05;100.00;100718.22;5049185;28;20074;-80
2024/02/26 11:00:01;;;;;;;5.45;3.70;;;;;;;6.11;100.00;100725.66;5048930;28;20408;-77
2024/02/26 11:02:27;;;;;;;7.07;3.92;;;;;;;6.11;100.00;100733.59;5050272;28;20460;-78
2024/02/26 11:04:53;;;;;;;4.55;3.47;;;;;;;6.03;100.00;100732.47;5048900;28;20489;-78
2024/02/26 11:07:20;;;;;;;5.22;3.63;;;;;;;6.03;100.00;100735.97;5050361;28;20037;-77
2024/02/26 11:09:51;;;;;;;4.43;3.50;;;;;;;6.00;100.00;100747.59;5050244;28;20033;-77
2024/02/26 11:12:21;;;;;;;6.20;4.13;;;;;;;6.06;100.00;100745.44;5050534;28;20028;-82